Paulton, United Kingdom
Current Conditions -  °F | °C
As of 8:50 PM on Friday 31 Oct 2014 (Local Time) from EGGD Reporting Station
Broken Clouds Broken Clouds  
Wind Chill: 61°   Ceiling: 3800
Heat Index: 61°   Visibility: 6mi
Dew Point: 57°   Wind: 12mph
Humidity: 88%   Direction: 180°S
Pressure: 29.91"   Gusts: NA
Location:  51.3°N, 2.5°W
Report Text: EGGD 312050Z 18010KT 9999 SCT014 BKN038 16/14 Q1013
Loading
Personal Weather Stations






























Interactive Weather Map
Tropical Storm Tracking
New forecast layout! Learn more

10-Day Weather Forecast

Advertisements
Track Severe Weather on mobile